Time;durP1;ratioP1;P1;durP2;ratioP2;P2;SDS_P1;SDS_P2;PMS_P1;PMS_P2;Temp;Humidity;BMP_temperature;BMP_pressure;BME280_temperature;BME280_humidity;BME280_pressure;Samples;Min_cycle;Max_cycle;Signal;HPM_P1;HPM_P2
2023/03/19 00:00:16;;;;;;;50.92;31.77;;;9.70;99.90;;;;;;5078240;28;20045;-60
2023/03/19 00:02:48;;;;;;;48.00;30.20;;;9.70;99.90;;;;;;5060742;28;20558;-60
2023/03/19 00:05:14;;;;;;;47.58;29.83;;;9.60;99.90;;;;;;5061558;28;20198;-60
2023/03/19 00:07:40;;;;;;;42.65;30.23;;;9.60;99.90;;;;;;5060008;28;20040;-60
2023/03/19 00:10:05;;;;;;;51.85;32.10;;;9.60;99.90;;;;;;5061269;28;20048;-61
2023/03/19 00:12:31;;;;;;;60.55;36.03;;;9.60;99.90;;;;;;5062889;28;20040;-61
2023/03/19 00:14:56;;;;;;;58.40;36.22;;;9.60;99.90;;;;;;5061512;28;20047;-61
2023/03/19 00:17:22;;;;;;;55.88;34.70;;;9.50;99.90;;;;;;5062062;28;20051;-61
2023/03/19 00:19:48;;;;;;;50.85;30.60;;;9.50;99.90;;;;;;5066536;28;20048;-60
2023/03/19 00:22:13;;;;;;;49.47;30.73;;;9.50;99.90;;;;;;5065282;28;20490;-61
2023/03/19 00:24:39;;;;;;;45.03;29.70;;;9.40;99.90;;;;;;5066253;28;20038;-60
2023/03/19 00:27:05;;;;;;;50.55;31.80;;;9.40;99.90;;;;;;5066752;28;20036;-60
2023/03/19 00:29:31;;;;;;;60.88;36.45;;;9.30;99.90;;;;;;5065198;28;20044;-60
2023/03/19 00:31:56;;;;;;;64.18;39.03;;;9.30;99.90;;;;;;5066417;28;20041;-60
2023/03/19 00:34:22;;;;;;;63.83;38.60;;;9.20;99.90;;;;;;5066508;28;20040;-60
2023/03/19 00:36:47;;;;;;;51.05;32.63;;;9.20;99.90;;;;;;5064955;28;20483;-60
2023/03/19 00:39:13;;;;;;;52.13;32.97;;;9.20;99.90;;;;;;5064892;28;20038;-60
2023/03/19 00:41:39;;;;;;;70.25;40.25;;;9.20;99.90;;;;;;5066066;28;20102;-60
2023/03/19 00:44:05;;;;;;;64.93;36.42;;;9.20;99.90;;;;;;5065447;28;20683;-60
2023/03/19 00:46:31;;;;;;;50.20;32.45;;;9.20;99.90;;;;;;5066419;28;20040;-60
2023/03/19 00:48:57;;;;;;;48.88;28.98;;;9.20;99.90;;;;;;5065893;28;20048;-60
2023/03/19 00:51:24;;;;;;;44.08;29.45;;;9.20;99.90;;;;;;5068337;28;20040;-61
2023/03/19 00:53:51;;;;;;;44.88;27.67;;;9.20;99.90;;;;;;5084363;28;20032;-60
2023/03/19 00:56:17;;;;;;;42.40;27.30;;;9.20;99.90;;;;;;5086667;28;20155;-60
2023/03/19 00:58:44;;;;;;;42.22;27.75;;;9.30;99.90;;;;;;5075581;28;20056;-60
2023/03/19 01:01:12;;;;;;;40.78;26.30;;;9.30;99.90;;;;;;5064421;28;20066;-60
2023/03/19 01:03:38;;;;;;;42.17;25.98;;;9.30;99.90;;;;;;5065253;28;20052;-60
2023/03/19 01:06:04;;;;;;;38.70;26.00;;;9.30;99.90;;;;;;5065933;28;20491;-60
2023/03/19 01:08:30;;;;;;;45.20;26.17;;;9.30;99.90;;;;;;5063337;28;20439;-61
2023/03/19 01:10:56;;;;;;;44.17;26.25;;;9.30;99.90;;;;;;5066094;28;20327;-61
2023/03/19 01:13:21;;;;;;;41.80;25.20;;;9.30;99.90;;;;;;5065870;28;20548;-60
2023/03/19 01:15:51;;;;;;;35.60;24.05;;;9.30;99.90;;;;;;5071624;28;20519;-60
2023/03/19 01:18:16;;;;;;;36.70;23.90;;;9.30;99.90;;;;;;5077105;28;20419;-61
2023/03/19 01:20:42;;;;;;;38.65;23.92;;;9.40;99.90;;;;;;5065651;28;20047;-60
2023/03/19 01:23:07;;;;;;;37.08;24.15;;;9.40;99.90;;;;;;5063528;28;20079;-60
2023/03/19 01:25:34;;;;;;;41.03;24.95;;;9.40;99.90;;;;;;5065952;28;20127;-61
2023/03/19 01:28:00;;;;;;;43.60;26.30;;;9.40;99.90;;;;;;5070930;28;20040;-61
2023/03/19 01:30:26;;;;;;;40.05;25.40;;;9.40;99.90;;;;;;5085781;28;20040;-61
2023/03/19 01:32:52;;;;;;;35.33;24.40;;;9.40;99.90;;;;;;5080453;28;20564;-61
2023/03/19 01:35:17;;;;;;;33.42;22.98;;;9.40;99.90;;;;;;5063892;28;20051;-61
2023/03/19 01:37:43;;;;;;;32.35;22.20;;;9.50;99.90;;;;;;5062767;28;20040;-60
2023/03/19 01:40:12;;;;;;;36.05;22.27;;;9.50;99.90;;;;;;5065418;28;20415;-60
2023/03/19 01:43:11;;;;;;;32.60;20.75;;;9.50;99.90;;;;;;5068194;28;20431;-60
2023/03/19 01:45:40;;;;;;;32.78;20.13;;;9.50;99.90;;;;;;5085480;28;20035;-60
2023/03/19 01:48:07;;;;;;;30.42;20.67;;;9.60;99.90;;;;;;5065544;28;20044;-60
2023/03/19 01:50:44;;;;;;;28.45;19.98;;;9.60;99.90;;;;;;5065318;28;20041;-60
2023/03/19 01:53:11;;;;;;;30.15;19.75;;;9.70;99.90;;;;;;5072149;28;20249;-60
2023/03/19 01:55:39;;;;;;;32.78;20.58;;;9.80;99.90;;;;;;5085285;28;20052;-60
2023/03/19 01:58:06;;;;;;;26.02;18.48;;;9.80;99.90;;;;;;5077020;28;20060;-60
2023/03/19 02:00:37;;;;;;;29.27;18.83;;;9.80;99.90;;;;;;5064878;28;20169;-60
2023/03/19 02:03:04;;;;;;;28.05;19.08;;;9.80;99.90;;;;;;5062833;28;20048;-60
2023/03/19 02:05:30;;;;;;;30.20;19.20;;;9.80;99.90;;;;;;5064639;28;20039;-60
2023/03/19 02:08:00;;;;;;;29.90;18.85;;;9.90;99.90;;;;;;5061906;28;20056;-60
2023/03/19 02:10:28;;;;;;;28.55;18.02;;;9.90;99.90;;;;;;5064868;28;20686;-61
2023/03/19 02:12:53;;;;;;;28.30;17.20;;;9.80;99.90;;;;;;5064386;28;20032;-60
2023/03/19 02:15:19;;;;;;;27.27;17.95;;;9.90;99.90;;;;;;5064950;28;20043;-60
2023/03/19 02:17:45;;;;;;;29.00;17.98;;;9.80;99.90;;;;;;5063429;28;20415;-59
2023/03/19 02:20:50;;;;;;;28.25;18.30;;;9.80;99.90;;;;;;5064909;28;20267;-60
2023/03/19 02:23:30;;;;;;;29.92;18.33;;;9.80;99.90;;;;;;5056193;28;20067;-60
2023/03/19 02:26:02;;;;;;;30.70;19.42;;;9.80;99.90;;;;;;5064504;28;20041;-58
2023/03/19 02:28:29;;;;;;;28.08;18.98;;;9.80;99.90;;;;;;5063963;28;20044;-59
2023/03/19 02:30:54;;;;;;;31.73;19.10;;;9.80;99.90;;;;;;5064293;28;20494;-60
2023/03/19 02:33:20;;;;;;;30.02;19.08;;;9.70;99.90;;;;;;5063333;28;20123;-60
2023/03/19 02:35:49;;;;;;;29.30;18.35;;;9.70;99.90;;;;;;5064892;28;20120;-60
2023/03/19 02:38:15;;;;;;;31.17;17.92;;;9.70;99.90;;;;;;5061380;28;20613;-60
2023/03/19 02:40:46;;;;;;;28.00;16.80;;;9.70;99.90;;;;;;5063673;28;20048;-60
2023/03/19 02:43:12;;;;;;;26.48;17.70;;;9.70;99.90;;;;;;5063407;28;20056;-60
2023/03/19 02:45:38;;;;;;;26.30;17.05;;;9.70;99.90;;;;;;5063929;28;20036;-61
2023/03/19 02:48:04;;;;;;;27.20;16.48;;;9.70;99.90;;;;;;5063101;28;20044;-60
2023/03/19 02:50:29;;;;;;;29.05;17.20;;;9.70;99.90;;;;;;5064198;28;20102;-61
2023/03/19 02:52:55;;;;;;;28.88;17.42;;;9.70;99.90;;;;;;5061960;28;20194;-60
2023/03/19 02:55:21;;;;;;;28.65;17.10;;;9.70;99.90;;;;;;5069555;28;20517;-60
2023/03/19 02:57:46;;;;;;;27.63;17.35;;;9.60;99.90;;;;;;5078608;28;20645;-60
2023/03/19 03:00:13;;;;;;;28.95;18.35;;;9.60;99.90;;;;;;5063265;28;20044;-60
2023/03/19 03:02:39;;;;;;;25.30;17.20;;;9.60;99.90;;;;;;5063500;28;20046;-60
2023/03/19 03:05:05;;;;;;;30.45;17.83;;;9.50;99.90;;;;;;5063362;28;20036;-60
2023/03/19 03:07:31;;;;;;;28.90;18.02;;;9.50;99.90;;;;;;5061345;28;20735;-60
2023/03/19 03:09:57;;;;;;;28.23;18.80;;;9.50;99.90;;;;;;5063432;28;20447;-61
2023/03/19 03:12:22;;;;;;;28.33;18.85;;;9.40;99.90;;;;;;5062952;28;20045;-60
2023/03/19 03:14:48;;;;;;;29.52;18.63;;;9.50;99.90;;;;;;5062698;28;20044;-60
2023/03/19 03:17:14;;;;;;;30.52;19.55;;;9.40;99.90;;;;;;5062881;28;20484;-60
2023/03/19 03:19:40;;;;;;;31.10;18.58;;;9.40;99.90;;;;;;5063495;28;20517;-60
2023/03/19 03:22:06;;;;;;;30.83;18.30;;;9.40;99.90;;;;;;5061747;28;20044;-61
2023/03/19 03:24:32;;;;;;;30.58;18.48;;;9.40;99.90;;;;;;5063027;28;20059;-60
2023/03/19 03:26:58;;;;;;;27.27;18.13;;;9.40;99.90;;;;;;5061789;28;20036;-61
2023/03/19 03:29:24;;;;;;;31.67;19.00;;;9.40;99.90;;;;;;5062897;28;20036;-60
2023/03/19 03:31:49;;;;;;;28.25;18.38;;;9.40;99.90;;;;;;5063037;28;20044;-60
2023/03/19 03:34:15;;;;;;;26.63;18.33;;;9.40;99.90;;;;;;5062491;28;20073;-60
2023/03/19 03:36:41;;;;;;;29.58;18.75;;;9.50;99.90;;;;;;5062551;28;20044;-61
2023/03/19 03:39:06;;;;;;;27.55;17.27;;;9.40;99.90;;;;;;5060489;28;20880;-60
2023/03/19 03:41:32;;;;;;;25.52;17.63;;;9.40;99.90;;;;;;5063012;28;20073;-61
2023/03/19 03:43:57;;;;;;;30.27;18.67;;;9.50;99.90;;;;;;5062895;28;20117;-60
2023/03/19 03:46:23;;;;;;;25.45;16.83;;;9.50;99.90;;;;;;5062613;28;20566;-60
2023/03/19 03:48:50;;;;;;;23.30;15.85;;;9.40;99.90;;;;;;5062239;28;20036;-61
2023/03/19 03:51:16;;;;;;;26.75;17.08;;;9.50;99.90;;;;;;5062949;28;20087;-60
2023/03/19 03:53:42;;;;;;;28.08;18.58;;;9.40;99.90;;;;;;5060515;28;20775;-60
2023/03/19 03:56:08;;;;;;;30.00;18.88;;;9.40;99.90;;;;;;5062998;28;20079;-60
2023/03/19 03:58:34;;;;;;;31.73;19.55;;;9.50;99.90;;;;;;5062664;28;20056;-60
2023/03/19 04:01:00;;;;;;;32.17;20.05;;;9.40;99.90;;;;;;5063020;28;20720;-60
2023/03/19 04:03:25;;;;;;;29.67;19.13;;;9.40;99.90;;;;;;5062345;28;20491;-61
2023/03/19 04:05:51;;;;;;;31.75;19.67;;;9.40;99.90;;;;;;5062876;28;20110;-61
2023/03/19 04:08:17;;;;;;;33.67;21.42;;;9.40;99.90;;;;;;5074162;28;20162;-60
2023/03/19 04:10:43;;;;;;;28.85;18.90;;;9.40;99.90;;;;;;5080841;28;20044;-61
2023/03/19 04:13:10;;;;;;;30.42;20.40;;;9.40;99.90;;;;;;5075483;28;20511;-61
2023/03/19 04:15:36;;;;;;;30.00;20.13;;;9.40;99.90;;;;;;5062921;28;20051;-60
2023/03/19 04:18:02;;;;;;;31.20;20.45;;;9.40;99.90;;;;;;5062306;28;20048;-60
2023/03/19 04:20:27;;;;;;;32.10;19.40;;;9.40;99.90;;;;;;5062428;28;20044;-60
2023/03/19 04:22:53;;;;;;;30.60;19.15;;;9.40;99.90;;;;;;5060623;28;20089;-60
2023/03/19 04:25:19;;;;;;;33.67;18.33;;;9.40;99.90;;;;;;5063521;28;20402;-61
2023/03/19 04:27:45;;;;;;;26.17;17.77;;;9.40;99.90;;;;;;5078013;28;20526;-60
2023/03/19 04:30:11;;;;;;;28.90;19.15;;;9.30;99.90;;;;;;5062349;28;20029;-60
2023/03/19 04:32:37;;;;;;;28.00;17.63;;;9.30;99.90;;;;;;5062115;28;20048;-61
2023/03/19 04:35:03;;;;;;;28.50;18.48;;;9.30;99.90;;;;;;5062531;28;20036;-61
2023/03/19 04:37:29;;;;;;;26.60;16.75;;;9.30;99.90;;;;;;5067207;28;20274;-60
2023/03/19 04:39:54;;;;;;;24.63;17.08;;;9.30;99.90;;;;;;5082221;28;20116;-60
2023/03/19 04:42:20;;;;;;;25.83;16.27;;;9.30;99.90;;;;;;5081578;28;20382;-60
2023/03/19 04:44:46;;;;;;;25.63;15.43;;;9.30;99.90;;;;;;5082016;28;20036;-61
2023/03/19 04:47:12;;;;;;;28.77;16.77;;;9.30;99.90;;;;;;5082062;28;20040;-60
2023/03/19 04:49:38;;;;;;;23.67;15.45;;;9.30;99.90;;;;;;5062678;28;20059;-61
2023/03/19 04:52:04;;;;;;;25.10;16.23;;;9.30;99.90;;;;;;5061084;28;20483;-60
2023/03/19 04:54:30;;;;;;;23.48;14.98;;;9.30;99.90;;;;;;5060084;28;20044;-60
2023/03/19 04:56:56;;;;;;;24.83;15.25;;;9.30;99.90;;;;;;5062782;28;20102;-60
2023/03/19 04:59:22;;;;;;;25.55;15.45;;;9.30;99.90;;;;;;5062021;28;20514;-60
2023/03/19 05:01:47;;;;;;;20.75;13.43;;;9.30;99.90;;;;;;5062275;28;20528;-60
2023/03/19 05:04:13;;;;;;;23.02;13.95;;;9.30;99.90;;;;;;5064530;28;20048;-61
2023/03/19 05:06:39;;;;;;;24.25;13.75;;;9.30;99.90;;;;;;5065894;28;20122;-61
2023/03/19 05:09:06;;;;;;;24.80;15.30;;;9.30;99.90;;;;;;5063575;28;20033;-61
2023/03/19 05:11:32;;;;;;;25.42;15.48;;;9.30;99.90;;;;;;5064545;28;20443;-60
2023/03/19 05:13:57;;;;;;;25.15;15.10;;;9.20;99.90;;;;;;5065836;28;20173;-60
2023/03/19 05:16:23;;;;;;;25.58;14.95;;;9.10;99.90;;;;;;5065968;28;20032;-60
2023/03/19 05:18:48;;;;;;;22.63;14.88;;;9.10;99.90;;;;;;5063528;28;20093;-60
2023/03/19 05:21:14;;;;;;;22.35;14.40;;;9.10;99.90;;;;;;5066182;28;20040;-61
2023/03/19 05:23:40;;;;;;;24.58;14.30;;;9.00;99.90;;;;;;5063631;28;20573;-60
2023/03/19 05:26:07;;;;;;;23.83;14.75;;;9.00;99.90;;;;;;5065991;28;20115;-61
2023/03/19 05:28:33;;;;;;;27.27;15.63;;;8.90;99.90;;;;;;5080596;28;20052;-61
2023/03/19 05:30:59;;;;;;;24.15;14.88;;;8.90;99.90;;;;;;5048021;28;20039;-61
2023/03/19 05:33:24;;;;;;;25.10;14.18;;;8.80;99.90;;;;;;5064473;28;20407;-60
2023/03/19 05:35:50;;;;;;;21.17;14.18;;;8.80;99.90;;;;;;5065265;28;20496;-60
2023/03/19 05:38:16;;;;;;;22.40;14.18;;;8.70;99.90;;;;;;5062636;28;20521;-60
2023/03/19 05:40:42;;;;;;;26.75;14.90;;;8.70;99.90;;;;;;5066583;28;20044;-60
2023/03/19 05:43:11;;;;;;;25.05;14.98;;;8.60;99.90;;;;;;5078264;28;20079;-60
2023/03/19 05:45:37;;;;;;;23.90;14.50;;;8.50;99.90;;;;;;5073828;28;20115;-60
2023/03/19 05:48:05;;;;;;;23.45;13.32;;;8.50;99.90;;;;;;5079633;28;20036;-60
2023/03/19 05:50:32;;;;;;;21.73;13.80;;;8.40;99.90;;;;;;5065565;28;20048;-60
2023/03/19 05:52:57;;;;;;;25.35;14.40;;;8.30;99.90;;;;;;5062948;28;20044;-60
2023/03/19 05:55:24;;;;;;;23.65;14.15;;;8.30;99.90;;;;;;5065413;28;20052;-60
2023/03/19 05:57:49;;;;;;;23.85;13.48;;;8.30;99.90;;;;;;5064653;28;20071;-61
2023/03/19 06:00:15;;;;;;;22.73;14.98;;;8.20;99.90;;;;;;5081052;28;20047;-60
2023/03/19 06:02:42;;;;;;;25.02;14.10;;;8.20;99.90;;;;;;5078604;28;20036;-60
2023/03/19 06:05:09;;;;;;;23.40;14.18;;;8.10;99.90;;;;;;5064785;28;20036;-60
2023/03/19 06:07:35;;;;;;;24.75;13.57;;;8.10;99.90;;;;;;5062876;28;20566;-60
2023/03/19 06:10:00;;;;;;;23.13;14.25;;;8.10;99.90;;;;;;5064161;28;20040;-60
2023/03/19 06:12:26;;;;;;;24.02;14.70;;;8.00;99.90;;;;;;5064710;28;20487;-61
2023/03/19 06:14:52;;;;;;;24.75;14.52;;;8.00;99.90;;;;;;5061841;28;20503;-60
2023/03/19 06:17:17;;;;;;;26.25;14.25;;;8.00;99.90;;;;;;5063494;28;20048;-61
2023/03/19 06:19:43;;;;;;;24.13;13.77;;;7.90;99.90;;;;;;5077099;28;20464;-60
2023/03/19 06:22:09;;;;;;;23.23;13.63;;;7.90;99.90;;;;;;5082526;28;20040;-60
2023/03/19 06:24:35;;;;;;;26.08;13.45;;;7.90;99.90;;;;;;5100004;28;20123;-60
2023/03/19 06:27:01;;;;;;;22.95;14.25;;;7.90;99.90;;;;;;5082517;28;20072;-60
2023/03/19 06:29:27;;;;;;;26.90;13.98;;;7.90;99.90;;;;;;5080594;28;20433;-61
2023/03/19 06:31:53;;;;;;;24.30;13.98;;;8.00;99.90;;;;;;5081283;28;20042;-60
2023/03/19 06:34:19;;;;;;;23.73;14.10;;;8.10;99.90;;;;;;5080641;28;20054;-60
2023/03/19 06:36:45;;;;;;;23.63;13.32;;;8.40;99.90;;;;;;5082468;28;20035;-61
2023/03/19 06:39:10;;;;;;;22.10;11.95;;;8.60;99.90;;;;;;5079703;28;20455;-61
2023/03/19 06:41:36;;;;;;;19.00;12.10;;;8.70;99.90;;;;;;5081306;28;20054;-61
2023/03/19 06:44:03;;;;;;;17.23;11.05;;;8.80;99.90;;;;;;5076119;28;20040;-60
2023/03/19 06:46:29;;;;;;;19.70;10.90;;;9.00;99.90;;;;;;5082879;28;20678;-60
2023/03/19 06:48:54;;;;;;;25.70;13.30;;;9.00;99.90;;;;;;5079736;28;20361;-60
2023/03/19 06:51:20;;;;;;;31.73;16.45;;;9.00;99.90;;;;;;5082862;28;20028;-61
2023/03/19 06:53:46;;;;;;;24.52;13.18;;;9.10;99.90;;;;;;5082230;28;20058;-61
2023/03/19 06:56:12;;;;;;;18.95;11.75;;;9.20;99.90;;;;;;5079839;28;20044;-60
2023/03/19 06:58:37;;;;;;;19.13;11.98;;;9.20;99.90;;;;;;5078201;28;20047;-61
2023/03/19 07:01:03;;;;;;;17.65;10.70;;;9.20;99.90;;;;;;5082786;28;20470;-61
2023/03/19 07:03:30;;;;;;;17.90;10.27;;;9.20;99.90;;;;;;5079490;28;20040;-60
2023/03/19 07:05:56;;;;;;;15.70;9.23;;;9.10;99.90;;;;;;5082604;28;20040;-61
2023/03/19 07:08:21;;;;;;;15.35;10.00;;;9.20;99.90;;;;;;5075038;28;20054;-61
2023/03/19 07:10:47;;;;;;;14.68;8.25;;;9.20;99.90;;;;;;5081601;28;20036;-61
2023/03/19 07:13:13;;;;;;;17.25;9.48;;;9.30;99.90;;;;;;5076188;28;20048;-61
2023/03/19 07:15:39;;;;;;;14.18;9.27;;;9.30;99.90;;;;;;5081321;28;20127;-61
2023/03/19 07:18:05;;;;;;;17.42;8.82;;;9.50;99.90;;;;;;5077782;28;20128;-61
2023/03/19 07:20:31;;;;;;;15.43;8.68;;;9.80;99.90;;;;;;5081716;28;20365;-61
2023/03/19 07:22:56;;;;;;;14.57;8.23;;;10.30;99.90;;;;;;5079234;28;20597;-61
2023/03/19 07:25:22;;;;;;;12.27;7.32;;;10.70;99.90;;;;;;5081961;28;20067;-60
2023/03/19 07:27:48;;;;;;;14.13;8.50;;;11.10;99.90;;;;;;5076632;28;20040;-61
2023/03/19 07:30:14;;;;;;;11.30;7.32;;;11.40;99.90;;;;;;5079843;28;20066;-61
2023/03/19 07:32:40;;;;;;;11.35;7.15;;;11.80;99.90;;;;;;5079036;28;20042;-61
2023/03/19 07:35:07;;;;;;;12.10;8.27;;;12.20;99.90;;;;;;5080188;28;20040;-61
2023/03/19 07:37:32;;;;;;;12.23;7.90;;;12.40;99.90;;;;;;5077021;28;20452;-61
2023/03/19 07:39:58;;;;;;;12.63;7.95;;;12.70;99.90;;;;;;5079097;28;20044;-61
2023/03/19 07:42:24;;;;;;;11.65;8.07;;;12.80;99.90;;;;;;5081502;28;20146;-61
2023/03/19 07:44:49;;;;;;;11.68;8.02;;;13.10;99.90;;;;;;5080787;28;20145;-61
2023/03/19 07:47:15;;;;;;;11.85;7.25;;;13.30;99.90;;;;;;5081708;28;20090;-62
2023/03/19 07:49:40;;;;;;;12.13;7.47;;;13.50;99.90;;;;;;5081618;28;20031;-61
2023/03/19 07:52:06;;;;;;;12.52;8.23;;;13.70;99.90;;;;;;5078705;28;20358;-62
2023/03/19 07:54:32;;;;;;;14.25;8.05;;;13.90;99.90;;;;;;5079102;28;20086;-62
2023/03/19 07:56:57;;;;;;;11.75;7.95;;;14.00;99.90;;;;;;5080404;28;20044;-61
2023/03/19 07:59:23;;;;;;;12.88;8.00;;;13.90;99.90;;;;;;5079746;28;20681;-62
2023/03/19 08:01:49;;;;;;;12.77;8.85;;;14.00;99.90;;;;;;5078776;28;20127;-62
2023/03/19 08:04:15;;;;;;;12.05;7.90;;;14.10;99.90;;;;;;5077938;28;20039;-62
2023/03/19 08:06:41;;;;;;;11.23;8.07;;;14.40;99.90;;;;;;5077044;28;20036;-63
2023/03/19 08:09:06;;;;;;;13.65;8.50;;;14.70;99.90;;;;;;5079070;28;20093;-61
2023/03/19 08:11:32;;;;;;;13.25;8.93;;;14.90;99.90;;;;;;5080755;28;20047;-62
2023/03/19 08:13:57;;;;;;;12.85;8.88;;;14.80;99.90;;;;;;5077531;28;20040;-62
2023/03/19 08:16:23;;;;;;;13.73;9.38;;;14.90;99.90;;;;;;5082364;28;20067;-62
2023/03/19 08:18:49;;;;;;;12.77;8.90;;;14.70;99.90;;;;;;5071383;28;20044;-62
2023/03/19 08:21:15;;;;;;;12.10;8.45;;;14.60;99.90;;;;;;5061383;28;20055;-61
2023/03/19 08:23:40;;;;;;;13.68;9.02;;;15.00;99.90;;;;;;5073049;28;20063;-61
2023/03/19 08:26:07;;;;;;;12.25;8.77;;;15.00;99.90;;;;;;5079100;28;20037;-63
2023/03/19 08:28:32;;;;;;;14.23;8.85;;;14.70;99.90;;;;;;5062238;28;20101;-62
2023/03/19 08:31:09;;;;;;;14.60;10.05;;;14.10;99.90;;;;;;5062980;28;20036;-61
2023/03/19 08:33:35;;;;;;;14.02;9.60;;;13.50;99.90;;;;;;5068308;28;20048;-62
2023/03/19 08:36:12;;;;;;;16.23;10.32;;;13.30;99.90;;;;;;5081361;28;20052;-62
2023/03/19 08:38:39;;;;;;;17.88;9.63;;;13.10;99.90;;;;;;5076501;28;20036;-62
2023/03/19 08:41:05;;;;;;;15.13;9.25;;;13.20;99.90;;;;;;5085857;28;20079;-61
2023/03/19 08:43:32;;;;;;;13.73;8.65;;;13.20;99.90;;;;;;5081665;28;20032;-62
2023/03/19 08:45:59;;;;;;;15.30;9.50;;;12.90;99.90;;;;;;5086341;28;20071;-61
2023/03/19 08:48:25;;;;;;;14.68;9.13;;;12.80;99.90;;;;;;5078172;28;20040;-62
2023/03/19 08:51:00;;;;;;;15.23;10.15;;;12.50;99.90;;;;;;5080423;28;20420;-62
2023/03/19 08:53:26;;;;;;;14.15;9.68;;;12.70;99.90;;;;;;5084188;28;20107;-62
2023/03/19 08:55:57;;;;;;;15.05;10.68;;;12.80;99.90;;;;;;5083153;28;20511;-62
2023/03/19 08:58:23;;;;;;;14.82;9.93;;;12.80;99.90;;;;;;5070100;28;20160;-62
2023/03/19 09:00:49;;;;;;;14.70;9.70;;;12.80;99.90;;;;;;5070553;28;20074;-62
2023/03/19 09:03:16;;;;;;;14.00;9.15;;;12.70;99.90;;;;;;5077206;28;20040;-62
2023/03/19 09:05:42;;;;;;;14.30;9.55;;;12.60;99.90;;;;;;5088653;28;20072;-62
2023/03/19 09:08:08;;;;;;;15.02;8.45;;;12.50;99.90;;;;;;5073725;28;20121;-61
2023/03/19 09:10:33;;;;;;;18.27;9.25;;;12.40;99.90;;;;;;5075250;28;20068;-62
2023/03/19 09:12:59;;;;;;;13.15;8.15;;;12.40;99.90;;;;;;5080708;28;20047;-62
2023/03/19 09:15:26;;;;;;;13.23;7.68;;;12.60;99.90;;;;;;5080285;28;20044;-61
2023/03/19 09:17:51;;;;;;;14.70;8.65;;;12.70;99.90;;;;;;5077106;28;20041;-61
2023/03/19 09:20:17;;;;;;;14.25;8.40;;;12.80;99.90;;;;;;5065251;28;20090;-62
2023/03/19 09:22:43;;;;;;;13.15;8.23;;;12.80;99.90;;;;;;5067536;28;20366;-61
2023/03/19 09:25:09;;;;;;;14.57;8.40;;;13.00;99.90;;;;;;5074557;28;20446;-62
2023/03/19 09:27:35;;;;;;;12.85;7.70;;;13.30;99.90;;;;;;5066355;28;20085;-62
2023/03/19 09:30:00;;;;;;;13.55;8.10;;;13.70;99.90;;;;;;5079108;28;20040;-61
2023/03/19 09:32:26;;;;;;;11.50;7.90;;;14.10;99.90;;;;;;5071415;28;20043;-62
2023/03/19 09:34:52;;;;;;;12.10;8.13;;;14.40;99.90;;;;;;5074447;28;20538;-61
2023/03/19 09:37:17;;;;;;;15.48;7.82;;;14.50;99.90;;;;;;5081821;28;20035;-61
2023/03/19 09:39:43;;;;;;;11.95;7.93;;;14.30;99.90;;;;;;5071651;28;20033;-61
2023/03/19 09:42:40;;;;;;;11.52;8.05;;;14.00;99.90;;;;;;5071298;28;20113;-62
2023/03/19 09:45:13;;;;;;;11.63;7.22;;;13.70;99.90;;;;;;5078089;28;20105;-62
2023/03/19 09:47:40;;;;;;;11.20;7.10;;;13.20;99.90;;;;;;5080607;28;20044;-62
2023/03/19 09:50:21;;;;;;;11.95;7.60;;;13.00;99.90;;;;;;5084333;28;20043;-62
2023/03/19 09:53:19;;;;;;;11.38;7.88;;;13.00;99.90;;;;;;5082455;28;20174;-61
2023/03/19 09:55:48;;;;;;;10.90;7.43;;;13.30;99.90;;;;;;5081668;28;20513;-62
2023/03/19 09:58:34;;;;;;;12.23;7.25;;;13.60;99.90;;;;;;5082193;28;20052;-62
2023/03/19 10:01:01;;;;;;;12.52;7.45;;;13.80;99.90;;;;;;5084241;28;20602;-63
2023/03/19 10:03:46;;;;;;;13.65;7.68;;;14.00;99.90;;;;;;5071482;28;20601;-63
2023/03/19 10:06:32;;;;;;;12.48;7.78;;;13.80;99.90;;;;;;5063215;28;20048;-63
2023/03/19 10:09:27;;;;;;;12.68;7.90;;;13.70;99.90;;;;;;5062664;28;20674;-62
2023/03/19 10:11:58;;;;;;;13.77;8.70;;;13.50;99.90;;;;;;5064368;28;20098;-62
2023/03/19 10:15:00;;;;;;;13.30;8.27;;;13.30;99.90;;;;;;5078174;28;20526;-63
2023/03/19 10:17:33;;;;;;;16.30;8.10;;;13.00;99.90;;;;;;5084266;28;20043;-61
2023/03/19 10:20:32;;;;;;;14.13;8.95;;;12.90;99.90;;;;;;5065183;28;20041;-63
2023/03/19 10:23:19;;;;;;;14.88;8.48;;;13.10;99.90;;;;;;5071707;28;20110;-62
2023/03/19 10:25:45;;;;;;;14.05;8.45;;;13.10;99.90;;;;;;5083958;28;20032;-62
2023/03/19 10:28:15;;;;;;;14.45;8.15;;;13.10;99.90;;;;;;5072916;28;20143;-62
2023/03/19 10:30:43;;;;;;;13.63;8.85;;;13.10;99.90;;;;;;5082949;28;20043;-62
2023/03/19 10:33:22;;;;;;;13.60;7.85;;;12.90;99.90;;;;;;5080688;28;20040;-62
2023/03/19 10:35:54;;;;;;;13.98;7.88;;;12.80;99.90;;;;;;5081173;28;20039;-61
2023/03/19 10:38:22;;;;;;;13.52;7.75;;;13.00;99.90;;;;;;5078231;28;20435;-62
2023/03/19 10:41:13;;;;;;;12.55;8.07;;;13.00;99.90;;;;;;5079449;28;20032;-62
2023/03/19 10:43:39;;;;;;;14.48;8.13;;;12.90;99.90;;;;;;5076878;28;20044;-63
2023/03/19 10:46:10;;;;;;;11.65;7.97;;;12.70;99.90;;;;;;5084859;28;20040;-63
2023/03/19 10:48:43;;;;;;;14.82;8.63;;;12.70;99.90;;;;;;5077902;28;20197;-61
2023/03/19 10:51:15;;;;;;;12.23;8.07;;;12.80;99.90;;;;;;5084721;28;20272;-63
2023/03/19 10:53:41;;;;;;;12.07;8.15;;;13.00;99.90;;;;;;5076120;28;20035;-63
2023/03/19 10:56:16;;;;;;;12.75;7.97;;;13.10;99.90;;;;;;5079023;28;20044;-62
2023/03/19 10:58:59;;;;;;;13.27;8.52;;;13.50;99.90;;;;;;5045070;28;20618;-63
2023/03/19 11:01:37;;;;;;;11.10;7.60;;;14.00;99.90;;;;;;5063972;28;20056;-64
2023/03/19 11:04:13;;;;;;;14.27;8.68;;;14.40;99.90;;;;;;5062508;28;20515;-64
2023/03/19 11:06:39;;;;;;;13.88;9.05;;;14.60;99.90;;;;;;5062498;28;20110;-63
2023/03/19 11:09:07;;;;;;;12.68;8.18;;;14.40;99.90;;;;;;5071653;28;20032;-63
2023/03/19 11:11:52;;;;;;;13.00;8.23;;;14.30;99.90;;;;;;5083966;28;20230;-64
2023/03/19 11:14:19;;;;;;;12.50;8.20;;;13.90;99.90;;;;;;5067924;28;20048;-63
2023/03/19 11:16:57;;;;;;;10.55;7.32;;;13.90;99.90;;;;;;5044902;28;20040;-63
2023/03/19 11:19:27;;;;;;;10.85;7.38;;;13.80;99.90;;;;;;5063551;28;20044;-63
2023/03/19 11:22:00;;;;;;;14.75;7.65;;;13.70;99.90;;;;;;5062607;28;20049;-63
2023/03/19 11:24:25;;;;;;;11.75;7.70;;;13.70;99.90;;;;;;5061572;28;20040;-63
2023/03/19 11:26:55;;;;;;;12.20;7.40;;;14.20;99.90;;;;;;5061691;28;20131;-64
2023/03/19 11:29:22;;;;;;;11.55;7.18;;;14.60;99.90;;;;;;5079200;28;20039;-63
2023/03/19 11:32:02;;;;;;;12.75;8.45;;;14.70;99.90;;;;;;5081143;28;20036;-63
2023/03/19 11:34:50;;;;;;;13.65;8.85;;;14.60;99.90;;;;;;5067790;28;20043;-64
2023/03/19 11:37:28;;;;;;;17.42;8.73;;;14.60;99.90;;;;;;5059763;28;20136;-63
2023/03/19 11:40:19;;;;;;;12.57;9.07;;;14.10;99.90;;;;;;5061381;28;20039;-63
2023/03/19 11:42:59;;;;;;;12.85;7.93;;;13.80;99.90;;;;;;5067646;28;20455;-64
2023/03/19 11:45:34;;;;;;;14.55;8.63;;;13.80;99.90;;;;;;5080899;28;20032;-64
2023/03/19 11:48:32;;;;;;;10.35;7.28;;;14.10;99.90;;;;;;5080187;28;20040;-63
2023/03/19 11:51:18;;;;;;;11.82;8.02;;;14.80;99.90;;;;;;5082216;28;20040;-64
2023/03/19 11:54:18;;;;;;;12.80;8.05;;;15.90;99.90;;;;;;5071490;28;20040;-62
2023/03/19 11:57:03;;;;;;;12.75;7.65;;;16.70;99.90;;;;;;5076108;28;20040;-64
2023/03/19 11:59:58;;;;;;;11.98;7.90;;;17.30;99.60;;;;;;5063219;28;20443;-64
2023/03/19 12:02:52;;;;;;;14.73;7.68;;;17.00;95.40;;;;;;5078031;28;20045;-65
2023/03/19 12:05:31;;;;;;;11.95;7.63;;;16.40;95.80;;;;;;5062934;28;20041;-64
2023/03/19 12:08:18;;;;;;;11.55;8.02;;;16.10;99.60;;;;;;5066281;28;20090;-64
2023/03/19 12:11:02;;;;;;;13.70;8.88;;;15.80;98.00;;;;;;5075968;28;20055;-63
2023/03/19 12:13:48;;;;;;;11.85;8.50;;;16.00;99.80;;;;;;5087874;27;20555;-63
2023/03/19 12:16:30;;;;;;;12.35;8.57;;;16.50;99.90;;;;;;5067133;28;20040;-61
2023/03/19 12:19:10;;;;;;;12.38;9.20;;;16.90;98.60;;;;;;5066659;28;20082;-61
2023/03/19 12:22:18;;;;;;;14.18;9.05;;;17.10;99.60;;;;;;5066842;28;20234;-62
2023/03/19 12:24:59;;;;;;;14.00;9.50;;;16.70;97.80;;;;;;5081302;28;20083;-61
2023/03/19 12:27:25;;;;;;;16.05;10.60;;;15.60;99.90;;;;;;5084764;28;20051;-63
2023/03/19 12:30:11;;;;;;;14.85;9.90;;;15.00;99.90;;;;;;5065789;28;20040;-62
2023/03/19 12:32:54;;;;;;;15.93;10.90;;;14.70;99.90;;;;;;5066495;28;20075;-61
2023/03/19 12:35:40;;;;;;;12.90;9.27;;;14.30;99.90;;;;;;5067048;28;20045;-61
2023/03/19 12:38:19;;;;;;;17.30;10.52;;;14.40;99.90;;;;;;5064126;28;20040;-62
2023/03/19 12:41:06;;;;;;;14.68;11.20;;;14.60;99.90;;;;;;5072195;28;20043;-62
2023/03/19 12:44:00;;;;;;;15.43;11.15;;;14.70;99.90;;;;;;5075614;28;20056;-62
2023/03/19 12:46:54;;;;;;;15.02;10.75;;;14.90;99.90;;;;;;5069386;28;20036;-61